sensor_id;sensor_type;location;lat;lon;timestamp;temperature;humidity
39189;DHT22;24915;50.858;4.376;2022-10-22T00:01:14;16.30;99.90
39189;DHT22;24915;50.858;4.376;2022-10-22T00:03:39;16.30;99.90
39189;DHT22;24915;50.858;4.376;2022-10-22T00:06:05;16.40;99.90
39189;DHT22;24915;50.858;4.376;2022-10-22T00:08:32;16.40;99.90
39189;DHT22;24915;50.858;4.376;2022-10-22T00:10:57;16.40;99.90
39189;DHT22;24915;50.858;4.376;2022-10-22T00:13:23;16.30;99.90
39189;DHT22;24915;50.858;4.376;2022-10-22T00:15:49;16.30;99.90
39189;DHT22;24915;50.858;4.376;2022-10-22T00:18:15;16.40;99.90
39189;DHT22;24915;50.858;4.376;2022-10-22T00:20:40;16.40;99.90
39189;DHT22;24915;50.858;4.376;2022-10-22T00:23:07;16.40;99.90
39189;DHT22;24915;50.858;4.376;2022-10-22T00:25:34;16.40;99.90
39189;DHT22;24915;50.858;4.376;2022-10-22T00:28:01;16.30;99.90
39189;DHT22;24915;50.858;4.376;2022-10-22T00:30:27;16.40;99.90
39189;DHT22;24915;50.858;4.376;2022-10-22T00:32:52;16.30;99.90
39189;DHT22;24915;50.858;4.376;2022-10-22T00:35:18;16.30;99.90
39189;DHT22;24915;50.858;4.376;2022-10-22T00:37:44;16.30;99.90
39189;DHT22;24915;50.858;4.376;2022-10-22T00:40:10;16.30;99.90
39189;DHT22;24915;50.858;4.376;2022-10-22T00:42:36;16.30;99.90
39189;DHT22;24915;50.858;4.376;2022-10-22T00:47:35;16.20;99.90
39189;DHT22;24915;50.858;4.376;2022-10-22T00:50:04;16.20;99.90
39189;DHT22;24915;50.858;4.376;2022-10-22T00:52:31;16.20;99.90
39189;DHT22;24915;50.858;4.376;2022-10-22T00:54:57;16.20;99.90
39189;DHT22;24915;50.858;4.376;2022-10-22T00:57:22;16.10;99.90
39189;DHT22;24915;50.858;4.376;2022-10-22T00:59:48;16.10;99.90
39189;DHT22;24915;50.858;4.376;2022-10-22T01:02:15;16.10;99.90
39189;DHT22;24915;50.858;4.376;2022-10-22T01:04:41;16.10;99.90
39189;DHT22;24915;50.858;4.376;2022-10-22T01:07:08;16.00;99.90
39189;DHT22;24915;50.858;4.376;2022-10-22T01:09:43;16.00;99.90
39189;DHT22;24915;50.858;4.376;2022-10-22T01:12:14;16.00;99.90
39189;DHT22;24915;50.858;4.376;2022-10-22T01:15:17;16.00;99.90
39189;DHT22;24915;50.858;4.376;2022-10-22T01:20:38;15.90;99.90
39189;DHT22;24915;50.858;4.376;2022-10-22T01:31:00;15.90;99.90
39189;DHT22;24915;50.858;4.376;2022-10-22T01:33:27;15.90;99.90
39189;DHT22;24915;50.858;4.376;2022-10-22T01:35:54;15.90;99.90
39189;DHT22;24915;50.858;4.376;2022-10-22T01:38:21;15.90;99.90
39189;DHT22;24915;50.858;4.376;2022-10-22T01:40:50;15.90;99.90
39189;DHT22;24915;50.858;4.376;2022-10-22T01:43:16;15.90;99.90
39189;DHT22;24915;50.858;4.376;2022-10-22T01:45:49;15.90;99.90
39189;DHT22;24915;50.858;4.376;2022-10-22T02:07:55;15.80;99.90
39189;DHT22;24915;50.858;4.376;2022-10-22T02:10:22;15.80;99.90
39189;DHT22;24915;50.858;4.376;2022-10-22T02:12:51;15.80;99.90
39189;DHT22;24915;50.858;4.376;2022-10-22T02:15:19;15.80;99.90
39189;DHT22;24915;50.858;4.376;2022-10-22T02:17:46;15.70;99.90
39189;DHT22;24915;50.858;4.376;2022-10-22T02:20:17;15.70;99.90
39189;DHT22;24915;50.858;4.376;2022-10-22T02:22:44;15.70;99.90
39189;DHT22;24915;50.858;4.376;2022-10-22T02:25:10;15.70;99.90
39189;DHT22;24915;50.858;4.376;2022-10-22T02:27:45;15.70;99.90
39189;DHT22;24915;50.858;4.376;2022-10-22T02:30:21;15.70;99.90
39189;DHT22;24915;50.858;4.376;2022-10-22T02:33:33;15.70;99.90
39189;DHT22;24915;50.858;4.376;2022-10-22T02:35:40;15.70;99.90
39189;DHT22;24915;50.858;4.376;2022-10-22T02:38:07;15.60;99.90
39189;DHT22;24915;50.858;4.376;2022-10-22T02:40:34;15.70;99.90
39189;DHT22;24915;50.858;4.376;2022-10-22T02:43:03;15.60;99.90
39189;DHT22;24915;50.858;4.376;2022-10-22T02:45:29;15.60;99.90
39189;DHT22;24915;50.858;4.376;2022-10-22T02:47:56;15.60;99.90
39189;DHT22;24915;50.858;4.376;2022-10-22T02:50:21;15.60;99.90
39189;DHT22;24915;50.858;4.376;2022-10-22T02:52:47;15.60;99.90
39189;DHT22;24915;50.858;4.376;2022-10-22T02:55:13;15.60;99.90
39189;DHT22;24915;50.858;4.376;2022-10-22T02:57:39;15.60;99.90
39189;DHT22;24915;50.858;4.376;2022-10-22T03:00:06;15.60;99.90
39189;DHT22;24915;50.858;4.376;2022-10-22T03:02:31;15.60;99.90
39189;DHT22;24915;50.858;4.376;2022-10-22T03:04:57;15.60;99.90
39189;DHT22;24915;50.858;4.376;2022-10-22T03:07:23;15.60;99.90
39189;DHT22;24915;50.858;4.376;2022-10-22T03:09:48;15.60;99.90
39189;DHT22;24915;50.858;4.376;2022-10-22T03:12:14;15.60;99.90
39189;DHT22;24915;50.858;4.376;2022-10-22T03:14:40;15.60;99.90
39189;DHT22;24915;50.858;4.376;2022-10-22T03:17:05;15.60;99.90
39189;DHT22;24915;50.858;4.376;2022-10-22T03:19:31;15.60;99.90
39189;DHT22;24915;50.858;4.376;2022-10-22T03:22:10;15.60;99.90
39189;DHT22;24915;50.858;4.376;2022-10-22T03:24:43;15.60;99.90
39189;DHT22;24915;50.858;4.376;2022-10-22T03:27:11;15.60;99.90
39189;DHT22;24915;50.858;4.376;2022-10-22T03:29:39;15.60;99.90
39189;DHT22;24915;50.858;4.376;2022-10-22T03:32:06;15.60;99.90
39189;DHT22;24915;50.858;4.376;2022-10-22T03:34:32;15.50;99.90
39189;DHT22;24915;50.858;4.376;2022-10-22T03:36:59;15.50;99.90
39189;DHT22;24915;50.858;4.376;2022-10-22T03:39:26;15.50;99.90
39189;DHT22;24915;50.858;4.376;2022-10-22T03:41:54;15.50;99.90
39189;DHT22;24915;50.858;4.376;2022-10-22T03:44:21;15.50;99.90
39189;DHT22;24915;50.858;4.376;2022-10-22T03:46:47;15.50;99.90
39189;DHT22;24915;50.858;4.376;2022-10-22T03:49:13;15.50;99.90
39189;DHT22;24915;50.858;4.376;2022-10-22T03:51:38;15.50;99.90
39189;DHT22;24915;50.858;4.376;2022-10-22T03:54:04;15.50;99.90
39189;DHT22;24915;50.858;4.376;2022-10-22T03:56:30;15.50;99.90
39189;DHT22;24915;50.858;4.376;2022-10-22T03:58:57;15.60;99.90
39189;DHT22;24915;50.858;4.376;2022-10-22T04:01:23;15.60;99.90
39189;DHT22;24915;50.858;4.376;2022-10-22T04:03:48;15.60;99.90
39189;DHT22;24915;50.858;4.376;2022-10-22T04:06:14;15.60;99.90
39189;DHT22;24915;50.858;4.376;2022-10-22T04:08:41;15.50;99.90
39189;DHT22;24915;50.858;4.376;2022-10-22T04:11:07;15.50;99.90
39189;DHT22;24915;50.858;4.376;2022-10-22T04:13:33;15.50;99.90
39189;DHT22;24915;50.858;4.376;2022-10-22T04:16:13;15.50;99.90
39189;DHT22;24915;50.858;4.376;2022-10-22T04:18:39;15.50;99.90
39189;DHT22;24915;50.858;4.376;2022-10-22T04:21:07;15.50;99.90
39189;DHT22;24915;50.858;4.376;2022-10-22T04:23:33;15.50;99.90
39189;DHT22;24915;50.858;4.376;2022-10-22T04:26:06;15.50;99.90
39189;DHT22;24915;50.858;4.376;2022-10-22T04:28:33;15.50;99.90
39189;DHT22;24915;50.858;4.376;2022-10-22T04:30:59;15.50;99.90
39189;DHT22;24915;50.858;4.376;2022-10-22T04:33:25;15.50;99.90
39189;DHT22;24915;50.858;4.376;2022-10-22T04:35:50;15.40;99.90
39189;DHT22;24915;50.858;4.376;2022-10-22T04:38:16;15.40;99.90
39189;DHT22;24915;50.858;4.376;2022-10-22T04:40:42;15.40;99.90
39189;DHT22;24915;50.858;4.376;2022-10-22T04:43:07;15.40;99.90
39189;DHT22;24915;50.858;4.376;2022-10-22T04:45:34;15.40;99.90
39189;DHT22;24915;50.858;4.376;2022-10-22T04:48:00;15.40;99.90
39189;DHT22;24915;50.858;4.376;2022-10-22T04:50:26;15.40;99.90
39189;DHT22;24915;50.858;4.376;2022-10-22T04:52:52;15.50;99.90
39189;DHT22;24915;50.858;4.376;2022-10-22T04:55:18;15.50;99.90
39189;DHT22;24915;50.858;4.376;2022-10-22T04:57:43;15.50;99.90
39189;DHT22;24915;50.858;4.376;2022-10-22T05:00:09;15.50;99.90
39189;DHT22;24915;50.858;4.376;2022-10-22T05:02:35;15.50;99.90
39189;DHT22;24915;50.858;4.376;2022-10-22T05:05:01;15.50;99.90
39189;DHT22;24915;50.858;4.376;2022-10-22T05:07:27;15.50;99.90
39189;DHT22;24915;50.858;4.376;2022-10-22T05:09:53;15.50;99.90
39189;DHT22;24915;50.858;4.376;2022-10-22T05:12:18;15.50;99.90
39189;DHT22;24915;50.858;4.376;2022-10-22T05:14:44;15.50;99.90
39189;DHT22;24915;50.858;4.376;2022-10-22T05:17:10;15.60;99.90
39189;DHT22;24915;50.858;4.376;2022-10-22T05:19:36;15.60;99.90
39189;DHT22;24915;50.858;4.376;2022-10-22T05:22:03;15.60;99.90
39189;DHT22;24915;50.858;4.376;2022-10-22T05:24:31;15.60;99.90
39189;DHT22;24915;50.858;4.376;2022-10-22T05:26:58;15.60;99.90
39189;DHT22;24915;50.858;4.376;2022-10-22T05:29:24;15.60;99.90
39189;DHT22;24915;50.858;4.376;2022-10-22T05:31:50;15.60;99.90
39189;DHT22;24915;50.858;4.376;2022-10-22T05:34:16;15.70;99.90
39189;DHT22;24915;50.858;4.376;2022-10-22T05:36:41;15.70;99.90
39189;DHT22;24915;50.858;4.376;2022-10-22T05:39:07;15.70;99.90
39189;DHT22;24915;50.858;4.376;2022-10-22T05:41:34;15.70;99.90
39189;DHT22;24915;50.858;4.376;2022-10-22T05:44:03;15.70;99.90
39189;DHT22;24915;50.858;4.376;2022-10-22T05:46:32;15.70;99.90
39189;DHT22;24915;50.858;4.376;2022-10-22T05:49:00;15.70;99.90
39189;DHT22;24915;50.858;4.376;2022-10-22T05:51:27;15.70;99.90
39189;DHT22;24915;50.858;4.376;2022-10-22T05:53:59;15.70;99.90
39189;DHT22;24915;50.858;4.376;2022-10-22T05:56:26;15.70;99.90
39189;DHT22;24915;50.858;4.376;2022-10-22T05:58:52;15.70;99.90
39189;DHT22;24915;50.858;4.376;2022-10-22T06:01:24;15.70;99.90
39189;DHT22;24915;50.858;4.376;2022-10-22T06:03:52;15.70;99.90
39189;DHT22;24915;50.858;4.376;2022-10-22T06:06:25;15.70;99.90
39189;DHT22;24915;50.858;4.376;2022-10-22T06:08:52;15.70;99.90
39189;DHT22;24915;50.858;4.376;2022-10-22T06:11:20;15.70;99.90
39189;DHT22;24915;50.858;4.376;2022-10-22T06:13:46;15.70;99.90
39189;DHT22;24915;50.858;4.376;2022-10-22T06:16:13;15.70;99.90
39189;DHT22;24915;50.858;4.376;2022-10-22T06:18:39;15.60;99.90
39189;DHT22;24915;50.858;4.376;2022-10-22T06:21:10;15.60;99.90
39189;DHT22;24915;50.858;4.376;2022-10-22T06:23:37;15.60;99.90
39189;DHT22;24915;50.858;4.376;2022-10-22T06:26:03;15.60;99.90
39189;DHT22;24915;50.858;4.376;2022-10-22T06:28:29;15.70;99.90
39189;DHT22;24915;50.858;4.376;2022-10-22T06:31:00;15.60;99.90
39189;DHT22;24915;50.858;4.376;2022-10-22T06:33:27;15.60;99.90
39189;DHT22;24915;50.858;4.376;2022-10-22T06:35:53;15.60;99.90
39189;DHT22;24915;50.858;4.376;2022-10-22T06:38:19;15.60;99.90
39189;DHT22;24915;50.858;4.376;2022-10-22T06:40:45;15.60;99.90
39189;DHT22;24915;50.858;4.376;2022-10-22T06:43:11;15.60;99.90
39189;DHT22;24915;50.858;4.376;2022-10-22T06:45:37;15.60;99.90
39189;DHT22;24915;50.858;4.376;2022-10-22T06:48:03;15.70;99.90
39189;DHT22;24915;50.858;4.376;2022-10-22T06:50:29;15.60;99.90
39189;DHT22;24915;50.858;4.376;2022-10-22T06:52:55;15.70;99.90
39189;DHT22;24915;50.858;4.376;2022-10-22T06:55:21;15.70;99.90
39189;DHT22;24915;50.858;4.376;2022-10-22T06:57:47;15.80;99.90
39189;DHT22;24915;50.858;4.376;2022-10-22T07:00:13;15.90;99.90
39189;DHT22;24915;50.858;4.376;2022-10-22T07:02:39;15.90;99.90
39189;DHT22;24915;50.858;4.376;2022-10-22T07:05:05;15.80;99.90
39189;DHT22;24915;50.858;4.376;2022-10-22T07:07:30;15.80;99.90
39189;DHT22;24915;50.858;4.376;2022-10-22T07:09:56;15.80;99.90
39189;DHT22;24915;50.858;4.376;2022-10-22T07:12:21;15.90;99.90
39189;DHT22;24915;50.858;4.376;2022-10-22T07:14:48;15.80;99.90
39189;DHT22;24915;50.858;4.376;2022-10-22T07:17:13;15.90;99.90
39189;DHT22;24915;50.858;4.376;2022-10-22T07:19:39;15.90;99.90
39189;DHT22;24915;50.858;4.376;2022-10-22T07:22:05;15.90;99.90
39189;DHT22;24915;50.858;4.376;2022-10-22T07:24:30;16.00;99.90
39189;DHT22;24915;50.858;4.376;2022-10-22T07:26:56;16.10;99.90
39189;DHT22;24915;50.858;4.376;2022-10-22T07:29:22;16.10;99.90
39189;DHT22;24915;50.858;4.376;2022-10-22T07:31:47;16.10;99.90
39189;DHT22;24915;50.858;4.376;2022-10-22T07:34:13;16.10;99.90
39189;DHT22;24915;50.858;4.376;2022-10-22T07:36:39;16.10;99.90
39189;DHT22;24915;50.858;4.376;2022-10-22T07:39:04;16.10;99.90
39189;DHT22;24915;50.858;4.376;2022-10-22T07:41:30;16.10;99.90
39189;DHT22;24915;50.858;4.376;2022-10-22T07:43:56;16.20;99.90
39189;DHT22;24915;50.858;4.376;2022-10-22T07:46:23;16.20;99.90
39189;DHT22;24915;50.858;4.376;2022-10-22T07:48:49;16.20;99.90
39189;DHT22;24915;50.858;4.376;2022-10-22T07:51:15;16.20;99.90
39189;DHT22;24915;50.858;4.376;2022-10-22T07:53:40;16.20;99.90
39189;DHT22;24915;50.858;4.376;2022-10-22T07:56:06;16.30;99.90
39189;DHT22;24915;50.858;4.376;2022-10-22T07:58:32;16.30;99.90
39189;DHT22;24915;50.858;4.376;2022-10-22T08:00:59;16.30;99.90
39189;DHT22;24915;50.858;4.376;2022-10-22T08:03:25;16.30;99.90
39189;DHT22;24915;50.858;4.376;2022-10-22T08:05:52;16.30;99.90
39189;DHT22;24915;50.858;4.376;2022-10-22T08:08:18;16.40;99.90
39189;DHT22;24915;50.858;4.376;2022-10-22T08:10:46;16.50;99.90
39189;DHT22;24915;50.858;4.376;2022-10-22T08:13:12;16.60;99.90
39189;DHT22;24915;50.858;4.376;2022-10-22T08:15:38;16.70;99.90
39189;DHT22;24915;50.858;4.376;2022-10-22T08:18:04;16.70;99.90
39189;DHT22;24915;50.858;4.376;2022-10-22T08:20:30;16.70;99.90
39189;DHT22;24915;50.858;4.376;2022-10-22T08:22:56;16.60;99.90
39189;DHT22;24915;50.858;4.376;2022-10-22T08:25:22;16.60;99.90
39189;DHT22;24915;50.858;4.376;2022-10-22T08:27:47;16.60;99.90
39189;DHT22;24915;50.858;4.376;2022-10-22T08:30:14;16.60;99.90
39189;DHT22;24915;50.858;4.376;2022-10-22T08:32:40;16.50;99.90
39189;DHT22;24915;50.858;4.376;2022-10-22T08:35:06;16.60;99.90
39189;DHT22;24915;50.858;4.376;2022-10-22T08:37:32;16.60;99.90
39189;DHT22;24915;50.858;4.376;2022-10-22T08:39:58;16.70;99.90
39189;DHT22;24915;50.858;4.376;2022-10-22T08:51:01;16.60;99.90
39189;DHT22;24915;50.858;4.376;2022-10-22T08:56:17;16.50;99.90
39189;DHT22;24915;50.858;4.376;2022-10-22T08:59:05;16.60;99.90
39189;DHT22;24915;50.858;4.376;2022-10-22T09:01:38;16.70;99.90
39189;DHT22;24915;50.858;4.376;2022-10-22T09:04:12;16.90;99.90
39189;DHT22;24915;50.858;4.376;2022-10-22T09:06:40;17.00;99.90
39189;DHT22;24915;50.858;4.376;2022-10-22T09:09:15;17.20;99.90
39189;DHT22;24915;50.858;4.376;2022-10-22T09:11:44;17.50;99.90
39189;DHT22;24915;50.858;4.376;2022-10-22T09:14:20;17.70;99.90
39189;DHT22;24915;50.858;4.376;2022-10-22T09:17:10;17.70;99.90
39189;DHT22;24915;50.858;4.376;2022-10-22T09:27:44;17.60;99.90
39189;DHT22;24915;50.858;4.376;2022-10-22T09:30:22;17.50;99.90
39189;DHT22;24915;50.858;4.376;2022-10-22T09:33:06;17.40;99.90
39189;DHT22;24915;50.858;4.376;2022-10-22T09:35:33;17.40;99.90
39189;DHT22;24915;50.858;4.376;2022-10-22T09:38:05;17.60;99.90
39189;DHT22;24915;50.858;4.376;2022-10-22T09:40:31;17.70;99.90
39189;DHT22;24915;50.858;4.376;2022-10-22T09:43:07;17.90;99.90
39189;DHT22;24915;50.858;4.376;2022-10-22T09:45:33;18.00;99.90
39189;DHT22;24915;50.858;4.376;2022-10-22T09:48:21;18.00;99.90
39189;DHT22;24915;50.858;4.376;2022-10-22T09:53:44;18.00;99.90
39189;DHT22;24915;50.858;4.376;2022-10-22T09:56:22;18.10;99.90
39189;DHT22;24915;50.858;4.376;2022-10-22T09:58:49;18.10;99.90
39189;DHT22;24915;50.858;4.376;2022-10-22T10:01:24;18.10;99.90
39189;DHT22;24915;50.858;4.376;2022-10-22T10:03:50;18.00;99.90
39189;DHT22;24915;50.858;4.376;2022-10-22T10:06:20;18.10;99.90
39189;DHT22;24915;50.858;4.376;2022-10-22T10:08:47;18.10;99.90
39189;DHT22;24915;50.858;4.376;2022-10-22T10:11:33;18.30;99.90
39189;DHT22;24915;50.858;4.376;2022-10-22T10:14:14;18.60;99.90
39189;DHT22;24915;50.858;4.376;2022-10-22T10:16:58;18.80;99.90
39189;DHT22;24915;50.858;4.376;2022-10-22T10:22:38;18.80;99.90
39189;DHT22;24915;50.858;4.376;2022-10-22T10:25:31;18.60;99.90
39189;DHT22;24915;50.858;4.376;2022-10-22T10:31:19;18.90;99.90
39189;DHT22;24915;50.858;4.376;2022-10-22T10:36:55;19.00;99.90
39189;DHT22;24915;50.858;4.376;2022-10-22T10:45:12;18.90;99.90
39189;DHT22;24915;50.858;4.376;2022-10-22T10:50:42;18.70;99.90
39189;DHT22;24915;50.858;4.376;2022-10-22T10:53:35;18.60;99.90
39189;DHT22;24915;50.858;4.376;2022-10-22T10:56:32;18.50;99.90
39189;DHT22;24915;50.858;4.376;2022-10-22T10:59:17;18.40;99.90
39189;DHT22;24915;50.858;4.376;2022-10-22T11:07:06;18.30;99.90
39189;DHT22;24915;50.858;4.376;2022-10-22T11:09:56;18.30;99.90
39189;DHT22;24915;50.858;4.376;2022-10-22T11:12:29;18.30;99.90
39189;DHT22;24915;50.858;4.376;2022-10-22T11:15:32;18.20;99.90
39189;DHT22;24915;50.858;4.376;2022-10-22T11:21:10;18.20;99.90
39189;DHT22;24915;50.858;4.376;2022-10-22T11:23:52;18.10;99.90
39189;DHT22;24915;50.858;4.376;2022-10-22T11:26:51;18.20;99.90
39189;DHT22;24915;50.858;4.376;2022-10-22T11:29:23;18.30;99.90
39189;DHT22;24915;50.858;4.376;2022-10-22T11:31:52;18.40;99.90
39189;DHT22;24915;50.858;4.376;2022-10-22T11:36:47;18.80;99.90
39189;DHT22;24915;50.858;4.376;2022-10-22T11:42:22;19.60;99.90
39189;DHT22;24915;50.858;4.376;2022-10-22T11:45:06;20.00;99.90
39189;DHT22;24915;50.858;4.376;2022-10-22T11:47:41;20.00;99.90
39189;DHT22;24915;50.858;4.376;2022-10-22T11:50:22;20.00;99.90
39189;DHT22;24915;50.858;4.376;2022-10-22T11:52:59;20.00;99.90
39189;DHT22;24915;50.858;4.376;2022-10-22T11:59:07;19.80;99.90
39189;DHT22;24915;50.858;4.376;2022-10-22T12:01:28;19.70;99.90
39189;DHT22;24915;50.858;4.376;2022-10-22T12:06:24;19.60;99.90
39189;DHT22;24915;50.858;4.376;2022-10-22T12:11:38;19.30;99.90
39189;DHT22;24915;50.858;4.376;2022-10-22T12:14:23;19.40;99.90
39189;DHT22;24915;50.858;4.376;2022-10-22T12:17:01;19.80;99.90
39189;DHT22;24915;50.858;4.376;2022-10-22T12:19:30;20.00;99.90
39189;DHT22;24915;50.858;4.376;2022-10-22T12:22:01;20.10;99.90
39189;DHT22;24915;50.858;4.376;2022-10-22T12:24:34;20.30;99.90
39189;DHT22;24915;50.858;4.376;2022-10-22T12:27:01;20.40;99.90
39189;DHT22;24915;50.858;4.376;2022-10-22T12:29:26;20.70;99.90
39189;DHT22;24915;50.858;4.376;2022-10-22T12:31:53;20.80;99.90
39189;DHT22;24915;50.858;4.376;2022-10-22T12:34:23;20.80;99.90
39189;DHT22;24915;50.858;4.376;2022-10-22T12:36:51;20.90;99.90
39189;DHT22;24915;50.858;4.376;2022-10-22T12:39:19;21.30;99.90
39189;DHT22;24915;50.858;4.376;2022-10-22T12:41:46;21.60;99.90
39189;DHT22;24915;50.858;4.376;2022-10-22T12:44:16;21.90;99.90
39189;DHT22;24915;50.858;4.376;2022-10-22T12:46:43;22.40;99.90
39189;DHT22;24915;50.858;4.376;2022-10-22T12:49:17;22.20;99.90
39189;DHT22;24915;50.858;4.376;2022-10-22T12:51:44;22.30;99.90
39189;DHT22;24915;50.858;4.376;2022-10-22T12:54:26;22.60;99.90
39189;DHT22;24915;50.858;4.376;2022-10-22T12:56:53;22.70;99.90
39189;DHT22;24915;50.858;4.376;2022-10-22T12:59:21;22.20;99.90
39189;DHT22;24915;50.858;4.376;2022-10-22T13:01:48;21.60;99.90
39189;DHT22;24915;50.858;4.376;2022-10-22T13:04:35;21.20;99.90
39189;DHT22;24915;50.858;4.376;2022-10-22T13:09:41;20.80;99.90
39189;DHT22;24915;50.858;4.376;2022-10-22T13:12:09;20.80;99.90
39189;DHT22;24915;50.858;4.376;2022-10-22T13:14:42;21.10;99.90
39189;DHT22;24915;50.858;4.376;2022-10-22T13:17:41;21.90;99.90
39189;DHT22;24915;50.858;4.376;2022-10-22T13:20:19;22.10;99.90
39189;DHT22;24915;50.858;4.376;2022-10-22T13:25:37;22.40;99.90
39189;DHT22;24915;50.858;4.376;2022-10-22T13:28:19;22.30;99.90
39189;DHT22;24915;50.858;4.376;2022-10-22T13:30:54;22.10;99.90
39189;DHT22;24915;50.858;4.376;2022-10-22T13:33:37;21.80;99.90
39189;DHT22;24915;50.858;4.376;2022-10-22T13:36:03;22.30;99.90
39189;DHT22;24915;50.858;4.376;2022-10-22T13:38:30;22.70;99.90
39189;DHT22;24915;50.858;4.376;2022-10-22T13:40:56;23.10;99.90
39189;DHT22;24915;50.858;4.376;2022-10-22T13:43:22;23.40;99.90
39189;DHT22;24915;50.858;4.376;2022-10-22T13:45:53;23.50;99.90
39189;DHT22;24915;50.858;4.376;2022-10-22T13:48:20;23.60;99.90
39189;DHT22;24915;50.858;4.376;2022-10-22T13:50:48;23.50;99.90
39189;DHT22;24915;50.858;4.376;2022-10-22T13:53:16;22.90;99.90
39189;DHT22;24915;50.858;4.376;2022-10-22T13:55:43;22.40;99.90
39189;DHT22;24915;50.858;4.376;2022-10-22T13:58:15;22.90;99.90
39189;DHT22;24915;50.858;4.376;2022-10-22T14:01:02;24.10;99.90
39189;DHT22;24915;50.858;4.376;2022-10-22T14:03:33;25.50;99.40
39189;DHT22;24915;50.858;4.376;2022-10-22T14:06:00;25.40;98.00
39189;DHT22;24915;50.858;4.376;2022-10-22T14:08:26;25.20;98.50
39189;DHT22;24915;50.858;4.376;2022-10-22T14:10:53;25.60;97.60
39189;DHT22;24915;50.858;4.376;2022-10-22T14:13:19;24.60;98.40
39189;DHT22;24915;50.858;4.376;2022-10-22T14:15:48;24.10;99.00
39189;DHT22;24915;50.858;4.376;2022-10-22T14:18:25;23.40;99.70
39189;DHT22;24915;50.858;4.376;2022-10-22T14:20:55;22.60;99.90
39189;DHT22;24915;50.858;4.376;2022-10-22T14:23:24;21.90;99.90
39189;DHT22;24915;50.858;4.376;2022-10-22T14:25:50;21.50;99.90
39189;DHT22;24915;50.858;4.376;2022-10-22T14:28:15;21.10;99.90
39189;DHT22;24915;50.858;4.376;2022-10-22T14:30:41;20.90;99.90
39189;DHT22;24915;50.858;4.376;2022-10-22T14:33:23;21.20;99.90
39189;DHT22;24915;50.858;4.376;2022-10-22T14:35:50;21.20;99.90
39189;DHT22;24915;50.858;4.376;2022-10-22T14:38:16;21.20;99.90
39189;DHT22;24915;50.858;4.376;2022-10-22T14:40:43;21.40;99.90
39189;DHT22;24915;50.858;4.376;2022-10-22T14:43:29;21.30;99.90
39189;DHT22;24915;50.858;4.376;2022-10-22T14:45:56;21.10;99.90
39189;DHT22;24915;50.858;4.376;2022-10-22T14:48:22;20.80;99.90
39189;DHT22;24915;50.858;4.376;2022-10-22T14:50:48;20.70;99.90
39189;DHT22;24915;50.858;4.376;2022-10-22T14:53:14;20.70;99.90
39189;DHT22;24915;50.858;4.376;2022-10-22T14:55:42;20.90;99.90
39189;DHT22;24915;50.858;4.376;2022-10-22T14:58:09;21.00;99.90
39189;DHT22;24915;50.858;4.376;2022-10-22T15:00:35;21.00;99.90
39189;DHT22;24915;50.858;4.376;2022-10-22T15:03:01;20.90;99.90
39189;DHT22;24915;50.858;4.376;2022-10-22T15:05:27;20.60;99.90
39189;DHT22;24915;50.858;4.376;2022-10-22T15:07:53;20.50;99.90
39189;DHT22;24915;50.858;4.376;2022-10-22T15:10:18;20.30;99.90
39189;DHT22;24915;50.858;4.376;2022-10-22T15:12:44;20.00;99.90
39189;DHT22;24915;50.858;4.376;2022-10-22T15:15:10;19.80;99.90
39189;DHT22;24915;50.858;4.376;2022-10-22T15:17:36;19.80;99.90
39189;DHT22;24915;50.858;4.376;2022-10-22T15:20:03;19.70;99.90
39189;DHT22;24915;50.858;4.376;2022-10-22T15:22:32;19.70;99.90
39189;DHT22;24915;50.858;4.376;2022-10-22T15:25:04;19.70;99.90
39189;DHT22;24915;50.858;4.376;2022-10-22T15:27:30;19.90;99.90
39189;DHT22;24915;50.858;4.376;2022-10-22T15:29:56;20.10;99.90
39189;DHT22;24915;50.858;4.376;2022-10-22T15:32:24;20.10;99.90
39189;DHT22;24915;50.858;4.376;2022-10-22T15:34:51;20.30;99.90
39189;DHT22;24915;50.858;4.376;2022-10-22T15:37:18;20.50;99.90
39189;DHT22;24915;50.858;4.376;2022-10-22T15:39:44;20.40;99.90
39189;DHT22;24915;50.858;4.376;2022-10-22T15:42:10;20.20;99.90
39189;DHT22;24915;50.858;4.376;2022-10-22T15:44:35;20.10;99.90
39189;DHT22;24915;50.858;4.376;2022-10-22T15:47:03;20.00;99.90
39189;DHT22;24915;50.858;4.376;2022-10-22T15:49:28;20.00;99.90
39189;DHT22;24915;50.858;4.376;2022-10-22T15:51:54;19.90;99.90
39189;DHT22;24915;50.858;4.376;2022-10-22T15:54:23;19.80;99.90
39189;DHT22;24915;50.858;4.376;2022-10-22T15:56:49;19.70;99.90
39189;DHT22;24915;50.858;4.376;2022-10-22T15:59:15;19.60;99.90
39189;DHT22;24915;50.858;4.376;2022-10-22T16:01:42;19.50;99.90
39189;DHT22;24915;50.858;4.376;2022-10-22T16:04:08;19.50;99.90
39189;DHT22;24915;50.858;4.376;2022-10-22T16:06:43;19.40;99.90
39189;DHT22;24915;50.858;4.376;2022-10-22T16:09:11;19.30;99.90
39189;DHT22;24915;50.858;4.376;2022-10-22T16:11:38;19.30;99.90
39189;DHT22;24915;50.858;4.376;2022-10-22T16:14:04;19.20;99.90
39189;DHT22;24915;50.858;4.376;2022-10-22T16:16:32;19.10;99.90
39189;DHT22;24915;50.858;4.376;2022-10-22T16:18:58;19.10;99.90
39189;DHT22;24915;50.858;4.376;2022-10-22T16:21:25;19.00;99.90
39189;DHT22;24915;50.858;4.376;2022-10-22T16:23:51;19.00;99.90
39189;DHT22;24915;50.858;4.376;2022-10-22T16:26:18;18.90;99.90
39189;DHT22;24915;50.858;4.376;2022-10-22T16:28:45;18.90;99.90
39189;DHT22;24915;50.858;4.376;2022-10-22T16:31:12;18.90;99.90
39189;DHT22;24915;50.858;4.376;2022-10-22T16:33:39;18.80;99.90
39189;DHT22;24915;50.858;4.376;2022-10-22T16:36:16;18.80;99.90
39189;DHT22;24915;50.858;4.376;2022-10-22T16:38:46;18.70;99.90
39189;DHT22;24915;50.858;4.376;2022-10-22T16:41:23;18.70;99.90
39189;DHT22;24915;50.858;4.376;2022-10-22T16:43:51;18.70;99.90
39189;DHT22;24915;50.858;4.376;2022-10-22T16:46:18;18.60;99.90
39189;DHT22;24915;50.858;4.376;2022-10-22T16:48:46;18.60;99.90
39189;DHT22;24915;50.858;4.376;2022-10-22T16:51:13;18.50;99.90
39189;DHT22;24915;50.858;4.376;2022-10-22T16:53:39;18.50;99.90
39189;DHT22;24915;50.858;4.376;2022-10-22T16:56:08;18.50;99.90
39189;DHT22;24915;50.858;4.376;2022-10-22T16:58:35;18.40;99.90
39189;DHT22;24915;50.858;4.376;2022-10-22T17:01:08;18.40;99.90
39189;DHT22;24915;50.858;4.376;2022-10-22T17:03:34;18.40;99.90
39189;DHT22;24915;50.858;4.376;2022-10-22T17:06:01;18.30;99.90
39189;DHT22;24915;50.858;4.376;2022-10-22T17:08:29;18.30;99.90
39189;DHT22;24915;50.858;4.376;2022-10-22T17:10:55;18.30;99.90
39189;DHT22;24915;50.858;4.376;2022-10-22T17:13:20;18.20;99.90
39189;DHT22;24915;50.858;4.376;2022-10-22T17:15:46;18.20;99.90
39189;DHT22;24915;50.858;4.376;2022-10-22T17:18:12;18.10;99.90
39189;DHT22;24915;50.858;4.376;2022-10-22T17:20:43;18.10;99.90
39189;DHT22;24915;50.858;4.376;2022-10-22T17:23:09;18.10;99.90